createdAt,value
2023-03-06T00:00:58.797Z,58.93
2023-03-06T00:01:58.774Z,57.11
2023-03-06T00:02:58.783Z,61.33
2023-03-06T00:03:58.793Z,61.92
2023-03-06T00:04:58.755Z,60.42
2023-03-06T00:05:59.133Z,61.75
2023-03-06T00:06:58.724Z,61.83
2023-03-06T00:07:58.726Z,63.67
2023-03-06T00:08:58.711Z,64.77
2023-03-06T00:09:58.709Z,64.05
2023-03-06T00:10:58.731Z,64.07
2023-03-06T00:11:58.696Z,61.97
2023-03-06T00:12:58.680Z,62.43
2023-03-06T00:13:58.666Z,64.57
2023-03-06T00:14:58.657Z,62.86
2023-03-06T00:15:58.693Z,63.91
2023-03-06T00:16:58.643Z,62.39
2023-03-06T00:17:58.636Z,61.84
2023-03-06T00:18:58.621Z,61.29
2023-03-06T00:19:58.656Z,62.99
2023-03-06T00:20:58.632Z,61.76
2023-03-06T00:21:58.592Z,62.26
2023-03-06T00:22:58.610Z,63.41
2023-03-06T00:23:58.573Z,62.80
2023-03-06T00:24:58.563Z,64.57
2023-03-06T00:25:58.596Z,62.91
2023-03-06T00:26:58.571Z,64.95
2023-03-06T00:27:58.542Z,62.21
2023-03-06T00:28:58.523Z,64.11
2023-03-06T00:29:58.526Z,60.97
2023-03-06T00:30:58.530Z,62.13
2023-03-06T00:31:58.517Z,64.11
2023-03-06T00:32:58.499Z,61.63
2023-03-06T00:33:58.486Z,62.92
2023-03-06T00:34:58.481Z,63.89
2023-03-06T00:35:58.508Z,60.53
2023-03-06T00:36:58.463Z,62.10
2023-03-06T00:37:58.447Z,63.24
2023-03-06T00:38:58.440Z,61.40
2023-03-06T00:39:58.445Z,61.90
2023-03-06T00:40:58.471Z,64.89
2023-03-06T00:41:58.427Z,65.32
2023-03-06T00:42:58.397Z,63.81
2023-03-06T00:43:58.400Z,62.71
2023-03-06T00:44:58.380Z,61.80
2023-03-06T00:45:58.436Z,62.00
2023-03-06T00:46:58.368Z,59.01
2023-03-06T00:47:58.386Z,63.94
2023-03-06T00:48:58.340Z,63.45
2023-03-06T00:49:58.326Z,61.59
2023-03-06T00:50:58.332Z,62.48
2023-03-06T00:51:58.313Z,63.54
2023-03-06T00:52:58.325Z,64.26
2023-03-06T00:53:58.294Z,63.37
2023-03-06T00:54:58.289Z,63.18
2023-03-06T00:55:58.319Z,61.51
2023-03-06T00:56:58.271Z,62.88
2023-03-06T00:57:58.250Z,62.41
2023-03-06T00:58:58.254Z,63.14
2023-03-06T00:59:58.249Z,63.52
2023-03-06T01:00:58.256Z,63.07
2023-03-06T01:01:58.325Z,65.30
2023-03-06T01:02:58.207Z,64.11
2023-03-06T01:03:58.198Z,63.52
2023-03-06T01:04:58.185Z,63.91
2023-03-06T01:05:59.202Z,63.66
2023-03-06T01:06:58.168Z,62.21
2023-03-06T01:07:58.172Z,61.00
2023-03-06T01:08:58.142Z,62.40
2023-03-06T01:09:58.146Z,63.12
2023-03-06T01:10:58.179Z,63.14
2023-03-06T01:11:58.111Z,63.36
2023-03-06T01:12:58.117Z,61.76
2023-03-06T01:13:58.108Z,64.53
2023-03-06T01:14:58.085Z,63.88
2023-03-06T01:15:58.091Z,63.82
2023-03-06T01:16:58.109Z,63.23
2023-03-06T01:17:58.067Z,61.84
2023-03-06T01:18:59.043Z,59.07
2023-03-06T01:19:58.037Z,59.90
2023-03-06T01:20:58.023Z,60.82
2023-03-06T01:21:58.010Z,60.02
2023-03-06T01:22:58.020Z,62.70
2023-03-06T01:23:57.997Z,62.34
2023-03-06T01:24:58.002Z,63.94
2023-03-06T01:25:58.011Z,62.65
2023-03-06T01:26:57.972Z,62.56
2023-03-06T01:27:57.962Z,60.74
2023-03-06T01:28:57.968Z,59.94
2023-03-06T01:29:57.939Z,62.36
2023-03-06T01:30:57.944Z,60.71
2023-03-06T01:31:57.937Z,61.65
2023-03-06T01:32:57.906Z,59.12
2023-03-06T01:33:57.905Z,59.66
2023-03-06T01:34:57.890Z,59.54
2023-03-06T01:35:57.915Z,60.51
2023-03-06T01:36:57.870Z,61.22
2023-03-06T01:37:57.869Z,56.55
2023-03-06T01:38:57.864Z,60.58
2023-03-06T01:39:57.853Z,61.81
2023-03-06T01:40:57.883Z,60.53
2023-03-06T01:41:57.835Z,60.19
2023-03-06T01:42:57.838Z,60.32
2023-03-06T01:43:57.813Z,60.91
2023-03-06T01:44:57.802Z,58.22
2023-03-06T01:45:57.836Z,57.60
2023-03-06T01:46:57.797Z,58.79
2023-03-06T01:47:57.779Z,60.63
2023-03-06T01:48:57.775Z,59.08
2023-03-06T01:49:57.765Z,60.88
2023-03-06T01:50:57.766Z,59.20
2023-03-06T01:51:57.756Z,59.92
2023-03-06T01:52:57.741Z,60.30
2023-03-06T01:53:57.723Z,61.31
2023-03-06T01:54:57.716Z,62.71
2023-03-06T01:55:57.727Z,58.74
2023-03-06T01:56:57.700Z,59.28
2023-03-06T01:57:57.789Z,61.44
2023-03-06T01:58:57.682Z,61.83
2023-03-06T01:59:57.667Z,62.44
2023-03-06T02:00:57.716Z,63.46
2023-03-06T02:01:57.711Z,60.44
2023-03-06T02:02:57.660Z,60.26
2023-03-06T02:03:57.630Z,60.12
2023-03-06T02:04:57.632Z,59.07
2023-03-06T02:05:57.611Z,63.07
2023-03-06T02:06:57.603Z,61.21
2023-03-06T02:07:57.662Z,61.88
2023-03-06T02:08:57.590Z,62.73
2023-03-06T02:09:57.589Z,63.91
2023-03-06T02:10:57.578Z,61.77
2023-03-06T02:11:57.603Z,61.60
2023-03-06T02:12:57.576Z,63.01
2023-03-06T02:13:57.562Z,62.82
2023-03-06T02:14:57.545Z,61.22
2023-03-06T02:15:58.529Z,60.41
2023-03-06T02:16:57.614Z,60.18
2023-03-06T02:17:57.517Z,61.17
2023-03-06T02:18:57.499Z,61.79
2023-03-06T02:19:57.508Z,62.10
2023-03-06T02:20:57.489Z,63.09
2023-03-06T02:21:57.500Z,63.19
2023-03-06T02:22:57.476Z,60.70
2023-03-06T02:23:57.483Z,61.07
2023-03-06T02:24:57.460Z,63.47
2023-03-06T02:25:57.449Z,63.57
2023-03-06T02:26:57.440Z,63.35
2023-03-06T02:27:57.438Z,61.82
2023-03-06T02:28:57.456Z,63.30
2023-03-06T02:29:57.420Z,64.25
2023-03-06T02:30:57.421Z,64.21
2023-03-06T02:31:57.392Z,64.41
2023-03-06T02:32:57.397Z,67.22
2023-03-06T02:33:57.395Z,63.14
2023-03-06T02:34:57.386Z,61.57
2023-03-06T02:35:57.410Z,63.19
2023-03-06T02:36:57.377Z,62.07
2023-03-06T02:37:57.351Z,62.20
2023-03-06T02:38:57.328Z,62.77
2023-03-06T02:39:57.326Z,65.51
2023-03-06T02:40:57.318Z,63.15
2023-03-06T02:41:57.333Z,63.85
2023-03-06T02:42:57.308Z,62.10
2023-03-06T02:43:57.291Z,64.18
2023-03-06T02:44:57.282Z,64.73
2023-03-06T02:45:57.300Z,64.26
2023-03-06T02:46:57.281Z,63.40
2023-03-06T02:47:57.259Z,62.57
2023-03-06T02:48:57.271Z,64.05
2023-03-06T02:49:57.247Z,65.19
2023-03-06T02:50:57.244Z,63.94
2023-03-06T02:51:57.255Z,64.33
2023-03-06T02:52:57.215Z,65.33
2023-03-06T02:53:57.224Z,63.76
2023-03-06T02:54:57.196Z,63.73
2023-03-06T02:55:57.191Z,63.57
2023-03-06T02:56:57.287Z,62.67
2023-03-06T02:57:57.165Z,63.40
2023-03-06T02:58:57.162Z,63.14
2023-03-06T02:59:57.168Z,62.65
2023-03-06T03:00:57.158Z,61.89
2023-03-06T03:01:57.158Z,62.40
2023-03-06T03:02:57.131Z,63.54
2023-03-06T03:03:57.142Z,64.61
2023-03-06T03:04:57.203Z,64.88
2023-03-06T03:05:57.109Z,64.45
2023-03-06T03:06:57.107Z,66.24
2023-03-06T03:07:57.091Z,63.99
2023-03-06T03:08:57.081Z,62.36
2023-03-06T03:09:57.089Z,64.01
2023-03-06T03:10:57.080Z,62.14
2023-03-06T03:11:57.098Z,62.54
2023-03-06T03:12:57.052Z,63.38
2023-03-06T03:13:57.062Z,62.52
2023-03-06T03:14:57.035Z,64.33
2023-03-06T03:15:57.037Z,65.30
2023-03-06T03:16:57.036Z,61.70
2023-03-06T03:17:57.018Z,65.55
2023-03-06T03:18:56.995Z,62.45
2023-03-06T03:19:56.998Z,64.44
2023-03-06T03:20:56.979Z,62.21
2023-03-06T03:21:57.022Z,63.05
2023-03-06T03:22:56.979Z,64.54
2023-03-06T03:23:56.962Z,63.77
2023-03-06T03:24:57.108Z,63.29
2023-03-06T03:25:56.939Z,63.78
2023-03-06T03:26:56.950Z,63.71
2023-03-06T03:27:56.938Z,64.89
2023-03-06T03:28:56.912Z,61.99
2023-03-06T03:29:56.919Z,60.39
2023-03-06T03:30:56.977Z,61.55
2023-03-06T03:31:56.916Z,62.44
2023-03-06T03:32:56.884Z,60.99
2023-03-06T03:33:56.870Z,63.69
2023-03-06T03:34:56.866Z,65.00
2023-03-06T03:35:56.864Z,63.33
2023-03-06T03:36:56.855Z,61.87
2023-03-06T03:37:57.849Z,63.34
2023-03-06T03:38:56.876Z,60.19
2023-03-06T03:39:56.860Z,64.03
2023-03-06T03:40:56.893Z,63.44
2023-03-06T03:41:56.877Z,61.80
2023-03-06T03:42:56.831Z,64.86
2023-03-06T03:43:56.801Z,61.52
2023-03-06T03:44:56.786Z,64.15
2023-03-06T03:45:56.772Z,64.48
2023-03-06T03:46:56.824Z,63.07
2023-03-06T03:47:56.764Z,63.03
2023-03-06T03:48:56.748Z,62.01
2023-03-06T03:49:56.739Z,62.08
2023-03-06T03:50:56.738Z,62.28
2023-03-06T03:51:56.746Z,64.51
2023-03-06T03:52:56.712Z,63.64
2023-03-06T03:53:56.715Z,61.83
2023-03-06T03:54:56.705Z,63.08
2023-03-06T03:55:56.687Z,63.46
2023-03-06T03:56:56.710Z,61.32
2023-03-06T03:57:56.679Z,63.84
2023-03-06T03:58:56.752Z,62.21
2023-03-06T03:59:56.682Z,63.08
2023-03-06T04:00:56.647Z,63.22
2023-03-06T04:01:56.713Z,63.53
2023-03-06T04:02:56.628Z,62.38
2023-03-06T04:03:57.623Z,63.17
2023-03-06T04:04:56.639Z,63.74
2023-03-06T04:05:56.602Z,61.42
2023-03-06T04:06:56.617Z,64.51
2023-03-06T04:07:56.593Z,64.68
2023-03-06T04:08:56.592Z,63.69
2023-03-06T04:12:31.154Z,64.63
2023-03-06T04:13:31.144Z,64.36
2023-03-06T04:14:31.128Z,65.18
2023-03-06T04:15:31.122Z,64.28
2023-03-06T04:16:31.189Z,62.36
2023-03-06T04:17:31.104Z,64.47
2023-03-06T04:18:32.227Z,63.61
2023-03-06T04:19:32.220Z,63.25
2023-03-06T04:20:32.212Z,64.53
2023-03-06T04:21:32.267Z,65.25
2023-03-06T04:22:32.200Z,63.22
2023-03-06T04:23:32.197Z,65.19
2023-03-06T04:24:32.187Z,63.78
2023-03-06T04:25:32.180Z,65.08
2023-03-06T04:26:32.205Z,65.01
2023-03-06T04:27:32.169Z,64.17
2023-03-06T04:28:32.163Z,66.36
2023-03-06T04:29:32.152Z,65.70
2023-03-06T04:30:32.195Z,63.47
2023-03-06T04:31:32.139Z,64.92
2023-03-06T04:32:32.138Z,66.32
2023-03-06T04:33:32.128Z,64.98
2023-03-06T04:34:32.103Z,65.41
2023-03-06T04:35:32.172Z,64.17
2023-03-06T04:36:32.110Z,64.83
2023-03-06T04:37:32.077Z,64.76
2023-03-06T04:38:32.095Z,64.38
2023-03-06T04:39:32.076Z,66.91
2023-03-06T04:40:32.068Z,65.58
2023-03-06T04:41:32.047Z,64.67
2023-03-06T04:42:32.072Z,66.11
2023-03-06T04:43:32.046Z,63.21
2023-03-06T04:44:32.027Z,65.97
2023-03-06T04:45:32.076Z,66.47
2023-03-06T04:46:32.011Z,65.09
2023-03-06T04:47:32.050Z,65.54
2023-03-06T04:48:31.995Z,65.01
2023-03-06T04:49:31.979Z,64.83
2023-03-06T04:50:31.976Z,64.53
2023-03-06T04:51:31.968Z,65.88
2023-03-06T04:52:31.983Z,65.54
2023-03-06T04:53:31.965Z,65.59
2023-03-06T04:54:31.961Z,65.74
2023-03-06T04:55:31.947Z,65.92
2023-03-06T04:56:31.961Z,65.88
2023-03-06T04:57:31.958Z,65.72
2023-03-06T04:58:31.929Z,66.32
2023-03-06T04:59:31.922Z,63.60
2023-03-06T05:00:31.924Z,65.78
2023-03-06T05:01:31.903Z,64.71
2023-03-06T05:02:31.957Z,65.52
2023-03-06T05:03:31.871Z,64.59
2023-03-06T05:04:31.867Z,62.67
2023-03-06T05:05:31.868Z,65.86
2023-03-06T05:06:31.852Z,65.65
2023-03-06T05:07:31.879Z,66.81
2023-03-06T05:08:31.835Z,66.81
2023-03-06T05:09:31.826Z,66.19
2023-03-06T05:10:31.852Z,66.70
2023-03-06T05:11:31.813Z,66.40
2023-03-06T05:12:31.824Z,67.73
2023-03-06T05:13:31.800Z,66.12
2023-03-06T05:14:31.784Z,65.57
2023-03-06T05:15:31.792Z,66.64
2023-03-06T05:16:31.792Z,66.85
2023-03-06T05:17:31.778Z,66.64
2023-03-06T05:18:31.764Z,67.30
2023-03-06T05:19:31.739Z,68.06
2023-03-06T05:20:31.780Z,67.79
2023-03-06T05:21:31.730Z,67.64
2023-03-06T05:22:31.745Z,65.98
2023-03-06T05:23:31.718Z,67.35
2023-03-06T05:24:31.743Z,66.09
2023-03-06T05:25:31.702Z,67.70
2023-03-06T05:26:31.696Z,67.98
2023-03-06T05:27:31.704Z,67.42
2023-03-06T05:28:31.684Z,67.28
2023-03-06T05:29:31.675Z,67.89
2023-03-06T05:30:31.668Z,67.48
2023-03-06T05:31:31.715Z,68.79
2023-03-06T05:32:33.324Z,68.89
2023-03-06T05:33:31.654Z,68.01
2023-03-06T05:34:31.628Z,68.38
2023-03-06T05:35:31.635Z,67.35
2023-03-06T05:36:31.640Z,69.17
2023-03-06T05:37:31.648Z,68.34
2023-03-06T05:38:31.605Z,67.91
2023-03-06T05:39:31.600Z,68.26
2023-03-06T05:40:31.600Z,67.98
2023-03-06T05:41:31.594Z,68.65
2023-03-06T05:42:31.612Z,68.65
2023-03-06T05:43:31.574Z,68.30
2023-03-06T05:44:31.564Z,69.42
2023-03-06T05:45:31.585Z,69.61
2023-03-06T05:46:31.554Z,69.91
2023-03-06T05:47:31.563Z,70.23
2023-03-06T05:48:31.542Z,68.90
2023-03-06T05:49:31.521Z,69.18
2023-03-06T05:50:31.505Z,69.02
2023-03-06T05:51:32.533Z,69.27
2023-03-06T05:52:31.514Z,69.15
2023-03-06T05:53:31.485Z,69.57
2023-03-06T05:54:31.485Z,68.68
2023-03-06T05:55:31.473Z,69.22
2023-03-06T05:56:31.464Z,68.13
2023-03-06T05:57:31.474Z,68.71
2023-03-06T05:58:31.450Z,69.38
2023-03-06T05:59:31.446Z,68.82
2023-03-06T06:00:31.426Z,69.16
2023-03-06T06:01:31.478Z,68.04
2023-03-06T06:02:31.500Z,68.37
2023-03-06T06:03:31.478Z,68.18
2023-03-06T06:04:31.399Z,68.51
2023-03-06T06:05:31.390Z,69.30
2023-03-06T06:06:31.390Z,68.43
2023-03-06T06:07:31.562Z,67.70
2023-03-06T06:08:31.375Z,69.17
2023-03-06T06:09:31.363Z,68.05
2023-03-06T06:10:31.358Z,67.60
2023-03-06T06:11:31.346Z,67.95
2023-03-06T06:12:31.376Z,69.42
2023-03-06T06:13:31.322Z,68.34
2023-03-06T06:14:31.315Z,68.89
2023-03-06T06:15:31.360Z,69.20
2023-03-06T06:16:31.306Z,69.11
2023-03-06T06:17:31.325Z,69.01
2023-03-06T06:18:31.287Z,69.89
2023-03-06T06:19:31.278Z,68.86
2023-03-06T06:20:31.269Z,69.57
2023-03-06T06:21:31.272Z,69.30
2023-03-06T06:22:31.272Z,68.17
2023-03-06T06:23:31.245Z,68.58
2023-03-06T06:24:31.239Z,68.56
2023-03-06T06:25:31.230Z,68.61
2023-03-06T06:26:31.218Z,69.40
2023-03-06T06:27:31.236Z,68.96
2023-03-06T06:28:31.217Z,68.40
2023-03-06T06:29:31.207Z,68.88
2023-03-06T06:30:31.210Z,68.45
2023-03-06T06:31:31.300Z,69.38
2023-03-06T06:32:31.283Z,68.35
2023-03-06T06:33:31.207Z,68.51
2023-03-06T06:34:31.166Z,68.86
2023-03-06T06:35:31.196Z,68.74
2023-03-06T06:36:31.149Z,69.00
2023-03-06T06:37:31.159Z,68.89
2023-03-06T06:38:31.135Z,69.22
2023-03-06T06:39:31.125Z,69.09
2023-03-06T06:40:31.122Z,69.39
2023-03-06T06:41:46.664Z,69.46
2023-03-06T06:42:38.259Z,69.51
2023-03-06T06:43:33.093Z,68.46
2023-03-06T06:44:31.090Z,69.33
2023-03-06T06:45:31.082Z,68.81
2023-03-06T06:47:19.312Z,68.56
2023-03-06T06:47:33.128Z,69.95
2023-03-06T06:48:31.052Z,69.34
2023-03-06T06:49:31.046Z,68.48
2023-03-06T06:50:31.035Z,67.86
2023-03-06T06:51:31.032Z,68.42
2023-03-06T06:52:31.038Z,68.22
2023-03-06T06:53:31.018Z,67.72
2023-03-06T06:54:31.020Z,68.79
2023-03-06T06:55:31.006Z,66.34
2023-03-06T06:56:31.013Z,69.12
2023-03-06T06:57:31.002Z,68.77
2023-03-06T06:58:30.984Z,69.07
2023-03-06T06:59:30.963Z,69.45
2023-03-06T07:00:30.960Z,70.24
2023-03-06T07:01:31.002Z,69.31
2023-03-06T07:02:30.965Z,68.90
2023-03-06T07:03:30.968Z,69.28
2023-03-06T07:04:30.934Z,69.59
2023-03-06T07:05:30.913Z,69.16
2023-03-06T07:06:30.910Z,68.89
2023-03-06T07:07:30.927Z,69.37
2023-03-06T07:08:30.889Z,69.07
2023-03-06T07:09:30.933Z,68.08
2023-03-06T07:10:30.878Z,68.81
2023-03-06T07:11:30.873Z,67.91
2023-03-06T07:12:30.894Z,67.59
2023-03-06T07:13:30.852Z,67.65
2023-03-06T07:14:30.847Z,68.22
2023-03-06T07:15:30.856Z,67.97
2023-03-06T07:16:30.840Z,68.21
2023-03-06T07:17:30.860Z,68.57
2023-03-06T07:18:30.806Z,68.62
2023-03-06T07:19:30.809Z,68.09
2023-03-06T07:20:30.806Z,68.35
2023-03-06T07:21:30.790Z,67.68
2023-03-06T07:22:38.720Z,66.74
2023-03-06T07:23:32.775Z,68.44
2023-03-06T07:24:30.771Z,69.78
2023-03-06T07:25:30.775Z,67.79
2023-03-06T07:26:32.768Z,68.95
2023-03-06T07:27:30.819Z,67.92
2023-03-06T07:28:37.616Z,68.09
2023-03-06T07:29:31.729Z,68.11
2023-03-06T07:30:30.725Z,68.10
2023-03-06T07:31:30.792Z,66.94
2023-03-06T07:32:30.780Z,67.77
2023-03-06T07:33:30.687Z,68.54
2023-03-06T07:34:30.683Z,66.66
2023-03-06T07:35:30.752Z,67.04
2023-03-06T07:36:30.668Z,66.29
2023-03-06T07:37:30.666Z,67.77
2023-03-06T07:38:30.640Z,67.90
2023-03-06T07:39:30.655Z,67.86
2023-03-06T07:40:30.626Z,66.95
2023-03-06T07:41:30.614Z,66.50
2023-03-06T07:42:30.622Z,67.53
2023-03-06T07:43:30.603Z,66.72
2023-03-06T07:44:30.586Z,67.07
2023-03-06T07:45:30.574Z,66.79
2023-03-06T07:46:30.614Z,66.59
2023-03-06T07:47:30.578Z,66.98
2023-03-06T07:48:30.560Z,67.03
2023-03-06T07:49:30.539Z,66.67
2023-03-06T07:50:30.529Z,67.54
2023-03-06T07:51:30.543Z,66.13
2023-03-06T07:52:30.526Z,66.15
2023-03-06T07:53:30.502Z,67.19
2023-03-06T07:54:30.500Z,66.29
2023-03-06T07:55:30.483Z,66.18
2023-03-06T07:56:30.485Z,66.14
2023-03-06T07:57:30.507Z,66.87
2023-03-06T07:58:30.455Z,66.94
2023-03-06T07:59:30.484Z,67.59
2023-03-06T08:00:30.457Z,66.64
2023-03-06T08:01:30.439Z,68.26
2023-03-06T08:02:30.438Z,67.22
2023-03-06T08:03:30.505Z,66.78
2023-03-06T08:04:30.397Z,67.17
2023-03-06T08:05:30.421Z,66.99
2023-03-06T08:06:30.398Z,67.36
2023-03-06T08:07:30.383Z,65.99
2023-03-06T08:08:30.406Z,66.10
2023-03-06T08:09:30.452Z,66.29
2023-03-06T08:10:30.389Z,67.79
2023-03-06T08:11:30.335Z,66.62
2023-03-06T08:12:30.316Z,66.73
2023-03-06T08:13:30.341Z,67.32
2023-03-06T08:14:30.357Z,68.40
2023-03-06T08:15:30.284Z,67.37
2023-03-06T08:16:30.330Z,67.03
2023-03-06T08:17:30.305Z,66.50
2023-03-06T08:18:30.273Z,65.84
2023-03-06T08:19:30.253Z,66.53
2023-03-06T08:20:30.239Z,67.83
2023-03-06T08:21:30.231Z,67.47
2023-03-06T08:22:30.227Z,67.91
2023-03-06T08:23:30.250Z,68.34
2023-03-06T08:24:30.219Z,68.17
2023-03-06T08:25:30.182Z,69.35
2023-03-06T08:26:30.188Z,67.07
2023-03-06T08:27:30.173Z,67.07
2023-03-06T08:28:30.173Z,67.45
2023-03-06T08:29:31.552Z,67.13
2023-03-06T08:30:30.138Z,67.50
2023-03-06T08:31:30.232Z,73.68
2023-03-06T08:32:30.140Z,67.27
2023-03-06T08:33:30.150Z,68.03
2023-03-06T08:34:30.091Z,66.99
2023-03-06T08:35:30.121Z,65.55
2023-03-06T08:36:30.070Z,65.57
2023-03-06T08:37:30.149Z,65.42
2023-03-06T08:38:30.085Z,66.49
2023-03-06T08:39:30.037Z,66.74
2023-03-06T08:40:30.031Z,66.82
2023-03-06T08:41:30.018Z,65.45
2023-03-06T08:42:30.015Z,66.03
2023-03-06T08:43:30.029Z,65.00
2023-03-06T08:44:30.042Z,65.59
2023-03-06T08:45:30.005Z,65.51
2023-03-06T08:46:29.955Z,64.98
2023-03-06T08:47:29.955Z,65.09
2023-03-06T08:48:29.978Z,66.27
2023-03-06T08:49:30.803Z,65.78
2023-03-06T08:50:29.956Z,65.43
2023-03-06T08:51:30.926Z,65.83
2023-03-06T08:52:29.896Z,66.10
2023-03-06T08:53:42.213Z,68.21
2023-03-06T08:54:31.881Z,64.97
2023-03-06T08:55:29.865Z,65.29
2023-03-06T08:56:29.850Z,64.46
2023-03-06T08:57:29.836Z,64.10
2023-03-06T08:58:29.855Z,65.50
2023-03-06T08:59:29.818Z,63.21
2023-03-06T09:00:29.840Z,65.21
2023-03-06T09:01:29.887Z,65.30
2023-03-06T09:02:30.683Z,65.25
2023-03-06T09:03:29.980Z,64.03
2023-03-06T09:04:29.754Z,62.56
2023-03-06T09:05:29.756Z,62.70
2023-03-06T09:06:29.737Z,63.48
2023-03-06T09:07:29.725Z,62.91
2023-03-06T09:08:29.730Z,65.23
2023-03-06T09:09:29.708Z,63.56
2023-03-06T09:10:29.714Z,64.08
2023-03-06T09:11:30.699Z,65.52
2023-03-06T09:12:32.647Z,63.36
2023-03-06T09:13:30.661Z,64.45
2023-03-06T09:25:52.390Z,64.42
2023-03-06T09:26:52.383Z,66.68
2023-03-06T09:28:08.654Z,65.07
2023-03-06T09:28:53.379Z,67.34
2023-03-06T09:29:52.352Z,64.99
2023-03-06T09:30:52.369Z,66.76
2023-03-06T09:31:52.324Z,65.54
2023-03-06T09:32:52.321Z,65.83
2023-03-06T09:33:52.318Z,66.69
2023-03-06T09:34:53.441Z,66.42
2023-03-06T09:35:53.487Z,66.86
2023-03-06T09:36:57.268Z,66.87
2023-03-06T09:37:54.382Z,67.30
2023-03-06T09:38:53.403Z,66.11
2023-03-06T09:39:53.367Z,66.37
2023-03-06T09:40:53.362Z,66.54
2023-03-06T09:41:53.383Z,67.27
2023-03-06T09:42:53.332Z,66.62
2023-03-06T09:43:53.348Z,64.69
2023-03-06T09:44:53.301Z,66.12
2023-03-06T09:45:53.328Z,66.74
2023-03-06T09:46:53.297Z,66.04
2023-03-06T09:47:53.304Z,66.61
2023-03-06T09:48:53.281Z,67.98
2023-03-06T09:49:53.252Z,67.26
2023-03-06T09:50:53.253Z,67.53
2023-03-06T09:51:53.231Z,67.25
2023-03-06T09:52:53.217Z,66.82
2023-03-06T09:53:53.265Z,66.44
2023-03-06T09:54:53.197Z,66.19
2023-03-06T09:55:53.174Z,67.15
2023-03-06T09:56:53.169Z,68.25
2023-03-06T09:57:53.169Z,67.46
2023-03-06T09:58:53.166Z,68.87
2023-03-06T09:59:53.144Z,70.08
2023-03-06T10:00:53.135Z,71.04
2023-03-06T10:01:53.106Z,70.66
2023-03-06T10:02:53.242Z,68.85
2023-03-06T10:03:53.100Z,69.69
2023-03-06T10:04:53.148Z,70.13
2023-03-06T10:05:53.068Z,69.75
2023-03-06T10:06:53.058Z,71.28
2023-03-06T10:07:53.064Z,69.20
2023-03-06T10:08:53.043Z,69.93
2023-03-06T10:09:53.033Z,69.67
2023-03-06T10:11:25.422Z,69.42
2023-03-06T10:11:53.008Z,69.87
2023-03-06T10:12:53.003Z,69.17
2023-03-06T10:13:52.999Z,69.52
2023-03-06T10:14:53.005Z,70.61
2023-03-06T10:15:52.968Z,69.85
2023-03-06T10:16:52.937Z,69.89
2023-03-06T10:17:53.942Z,69.48
2023-03-06T10:18:52.980Z,69.70
2023-03-06T10:19:52.934Z,69.38
2023-03-06T10:20:52.926Z,69.21
2023-03-06T10:21:52.889Z,69.33
2023-03-06T10:23:00.607Z,71.22
2023-03-06T10:23:54.907Z,70.22
2023-03-06T10:24:52.853Z,69.36
2023-03-06T10:25:52.855Z,68.83
2023-03-06T10:26:52.959Z,69.45
2023-03-06T10:27:52.840Z,68.93
2023-03-06T10:28:52.881Z,70.00
2023-03-06T10:30:02.204Z,68.67
2023-03-06T10:30:54.831Z,71.02
2023-03-06T10:31:52.780Z,68.33
2023-03-06T10:32:52.794Z,69.90
2023-03-06T10:33:52.775Z,68.74
2023-03-06T10:34:52.745Z,69.26
2023-03-06T10:35:52.774Z,69.70
2023-03-06T10:36:52.755Z,69.07
2023-03-06T10:37:52.710Z,69.77
2023-03-06T10:38:52.752Z,68.53
2023-03-06T10:39:52.704Z,68.77
2023-03-06T10:40:52.685Z,69.59
2023-03-06T10:41:52.670Z,71.04
2023-03-06T10:43:09.387Z,71.17
2023-03-06T10:43:54.666Z,70.45
2023-03-06T10:44:52.634Z,70.55
2023-03-06T10:45:52.631Z,71.57
2023-03-06T10:46:52.665Z,70.83
2023-03-06T10:47:52.628Z,69.85
2023-03-06T10:48:52.608Z,71.55
2023-03-06T10:49:52.569Z,71.42
2023-03-06T10:50:53.579Z,70.97
2023-03-06T10:51:52.586Z,70.17
2023-03-06T10:52:52.547Z,68.49
2023-03-06T10:53:52.572Z,69.56
2023-03-06T10:54:52.563Z,69.55
2023-03-06T10:55:52.518Z,70.50
2023-03-06T10:56:52.504Z,70.33
2023-03-06T10:57:52.505Z,70.01
2023-03-06T10:58:52.496Z,68.90
2023-03-06T10:59:52.478Z,70.81
2023-03-06T11:00:52.616Z,70.52
2023-03-06T11:01:52.506Z,70.26
2023-03-06T11:02:52.428Z,69.55
2023-03-06T11:03:52.451Z,69.50
2023-03-06T11:04:52.525Z,70.69
2023-03-06T11:05:52.403Z,71.96
2023-03-06T11:06:52.395Z,70.80
2023-03-06T11:07:52.385Z,71.45
2023-03-06T11:08:52.386Z,70.89
2023-03-06T11:09:52.365Z,70.48
2023-03-06T11:10:53.168Z,71.13
2023-03-06T11:11:52.335Z,71.20
2023-03-06T11:12:52.321Z,68.95
2023-03-06T11:13:52.391Z,69.90
2023-03-06T11:14:52.318Z,71.20
2023-03-06T11:15:52.301Z,70.53
2023-03-06T11:16:52.282Z,71.12
2023-03-06T11:17:52.284Z,70.86
2023-03-06T11:18:52.284Z,69.69
2023-03-06T11:19:52.288Z,71.48
2023-03-06T11:20:53.221Z,71.05
2023-03-06T11:21:53.230Z,69.94
2023-03-06T11:22:52.229Z,69.61
2023-03-06T11:23:52.246Z,70.97
2023-03-06T11:24:52.195Z,72.69
2023-03-06T11:25:52.190Z,70.27
2023-03-06T11:26:52.191Z,71.99
2023-03-06T11:27:52.169Z,71.73
2023-03-06T11:28:52.170Z,72.02
2023-03-06T11:29:52.175Z,71.48
2023-03-06T11:30:52.133Z,70.33
2023-03-06T11:31:52.115Z,70.96
2023-03-06T11:32:52.124Z,70.20
2023-03-06T11:33:52.101Z,69.41
2023-03-06T11:34:52.159Z,71.36
2023-03-06T11:35:52.118Z,71.47
2023-03-06T11:36:52.058Z,69.48
2023-03-06T11:37:52.068Z,70.17
2023-03-06T11:38:52.057Z,70.10
2023-03-06T11:39:52.051Z,70.33
2023-03-06T11:40:52.012Z,70.43
2023-03-06T11:41:52.007Z,70.43
2023-03-06T11:42:51.996Z,70.42
2023-03-06T11:43:51.988Z,69.10
2023-03-06T11:44:52.031Z,69.91
2023-03-06T11:45:51.970Z,70.12
2023-03-06T11:46:51.971Z,69.77
2023-03-06T11:47:51.952Z,68.89
2023-03-06T11:48:51.931Z,68.44
2023-03-06T11:49:51.947Z,69.39
2023-03-06T11:50:51.913Z,69.43
2023-03-06T11:51:51.905Z,68.98
2023-03-06T11:52:51.897Z,68.69
2023-03-06T11:53:51.874Z,70.96
2023-03-06T11:54:51.870Z,70.49
2023-03-06T11:55:51.906Z,68.82
2023-03-06T11:56:51.849Z,68.84
2023-03-06T11:57:51.836Z,69.26
2023-03-06T11:58:51.836Z,69.61
2023-03-06T11:59:51.832Z,70.23
2023-03-06T12:00:51.808Z,69.35
2023-03-06T12:01:51.805Z,69.66
2023-03-06T12:02:51.782Z,69.60
2023-03-06T12:03:51.774Z,70.22
2023-03-06T12:04:51.863Z,70.50
2023-03-06T12:05:51.774Z,68.65
2023-03-06T12:06:51.757Z,69.68
2023-03-06T12:07:51.733Z,67.63
2023-03-06T12:08:51.736Z,69.53
2023-03-06T12:09:51.737Z,68.26
2023-03-06T12:10:52.239Z,66.86
2023-03-06T12:11:51.713Z,67.38
2023-03-06T12:12:51.694Z,68.13
2023-03-06T12:14:52.711Z,68.98
2023-03-06T12:15:51.650Z,68.88
2023-03-06T12:16:51.734Z,68.97
2023-03-06T12:17:51.636Z,69.77
2023-03-06T12:18:51.634Z,69.43
2023-03-06T12:19:51.637Z,69.55
2023-03-06T12:20:51.607Z,69.28
2023-03-06T12:21:51.593Z,71.04
2023-03-06T12:22:57.875Z,70.45
2023-03-06T12:23:53.577Z,70.90
2023-03-06T12:24:51.585Z,70.07
2023-03-06T12:25:51.568Z,70.14
2023-03-06T12:26:51.582Z,69.91
2023-03-06T12:27:51.530Z,70.55
2023-03-06T12:28:51.524Z,70.93
2023-03-06T12:29:51.520Z,70.97
2023-03-06T12:30:51.517Z,71.82
2023-03-06T12:31:51.550Z,71.38
2023-03-06T12:32:51.526Z,71.05
2023-03-06T12:33:51.488Z,69.83
2023-03-06T12:34:51.470Z,69.55
2023-03-06T12:35:51.458Z,70.02
2023-03-06T12:36:51.472Z,70.16
2023-03-06T12:37:51.433Z,70.72
2023-03-06T12:38:51.428Z,70.11
2023-03-06T12:39:51.444Z,68.73
2023-03-06T12:40:51.401Z,69.09
2023-03-06T12:41:51.397Z,68.98
2023-03-06T12:42:51.388Z,69.92
2023-03-06T12:43:51.400Z,69.69
2023-03-06T12:44:51.396Z,68.37
2023-03-06T12:45:51.384Z,68.74
2023-03-06T12:46:51.353Z,67.87
2023-03-06T12:47:51.353Z,69.09
2023-03-06T12:48:51.337Z,68.89
2023-03-06T12:49:51.338Z,69.21
2023-03-06T12:50:51.312Z,69.61
2023-03-06T12:51:51.303Z,70.07
2023-03-06T12:52:51.283Z,68.01
2023-03-06T12:53:51.308Z,69.17
2023-03-06T12:54:51.325Z,68.91
2023-03-06T12:55:51.270Z,69.45
2023-03-06T12:56:51.261Z,69.49
2023-03-06T12:57:51.240Z,69.12
2023-03-06T12:58:51.230Z,69.11
2023-03-06T12:59:51.231Z,68.40
2023-03-06T13:00:55.324Z,68.09
2023-03-06T13:01:53.258Z,68.04
2023-03-06T13:02:51.222Z,68.40
2023-03-06T13:03:51.184Z,67.59
2023-03-06T13:04:51.193Z,68.48
2023-03-06T13:05:51.164Z,68.20
2023-03-06T13:06:51.624Z,69.43
2023-03-06T13:07:51.144Z,68.45